Terminal Aerodrome Forecast
Issued by NWS

Home | Current Version | Previous Version | Text Only | Print | Product List | Glossary On
Versions: 1 2 3 4 5 6 7 8 9 10 11 12 13
000
FTUS46 KLOX 171127
TAFPMD
TAF
KPMD 171127Z 1712/1812 VRB03KT P6SM SCT250
     FM172200 27012KT P6SM BKN200
     FM180400 VRB03KT P6SM BKN200=

USA.gov is the U.S. government's official web portal to all federal, state and local government web resources and services.